createdAt,value
2023-01-23T00:01:06.689Z,103401.16
2023-01-23T00:03:34.147Z,103406.50
2023-01-23T00:06:06.581Z,103418.88
2023-01-23T00:08:33.504Z,103412.81
2023-01-23T00:11:00.314Z,103413.66
2023-01-23T00:13:26.718Z,103403.44
2023-01-23T00:15:53.192Z,103412.00
2023-01-23T00:18:19.646Z,103400.81
2023-01-23T00:20:46.148Z,103423.50
2023-01-23T00:23:12.691Z,103420.00
2023-01-23T00:25:39.337Z,103426.22
2023-01-23T00:28:06.407Z,103423.56
2023-01-23T00:30:33.674Z,103428.94
2023-01-23T00:33:00.501Z,103430.66
2023-01-23T00:35:26.880Z,103425.44
2023-01-23T00:37:53.419Z,103434.44
2023-01-23T00:40:20.221Z,103431.63
2023-01-23T00:42:46.815Z,103429.81
2023-01-23T00:45:13.531Z,103422.88
2023-01-23T00:47:39.997Z,103423.84
2023-01-23T00:50:06.557Z,103434.44
2023-01-23T00:52:32.976Z,103432.63
2023-01-23T00:54:59.416Z,103434.47
2023-01-23T00:57:25.845Z,103433.56
2023-01-23T00:59:52.210Z,103439.81
2023-01-23T01:02:18.779Z,103440.72
2023-01-23T01:04:45.264Z,103442.53
2023-01-23T01:07:11.811Z,103443.41
2023-01-23T01:09:38.255Z,103435.63
2023-01-23T01:12:04.944Z,103445.31
2023-01-23T01:14:31.430Z,103442.59
2023-01-23T01:16:58.669Z,103436.41
2023-01-23T01:19:25.248Z,103437.31
2023-01-23T01:21:51.899Z,103442.66
2023-01-23T01:24:18.390Z,103438.44
2023-01-23T01:26:44.955Z,103449.69
2023-01-23T01:29:11.476Z,103444.41
2023-01-23T01:31:38.163Z,103451.44
2023-01-23T01:34:04.561Z,103452.34
2023-01-23T01:36:31.270Z,103461.19
2023-01-23T01:38:57.678Z,103457.88
2023-01-23T01:41:24.400Z,103463.00
2023-01-23T01:43:53.223Z,103472.59
2023-01-23T01:46:30.752Z,103472.66
2023-01-23T01:49:03.472Z,103465.63
2023-01-23T01:51:51.137Z,103474.47
2023-01-23T01:54:36.975Z,103470.94
2023-01-23T01:57:32.782Z,103473.81
2023-01-23T02:00:04.745Z,103477.38
2023-01-23T02:02:45.563Z,103464.25
2023-01-23T02:05:19.935Z,103479.13
2023-01-23T02:07:54.427Z,103478.25
2023-01-23T02:10:22.528Z,103472.16
2023-01-23T02:12:51.148Z,103476.47
2023-01-23T02:15:20.288Z,103464.97
2023-01-23T02:17:48.317Z,103471.22
2023-01-23T02:20:25.962Z,103472.06
2023-01-23T02:22:58.174Z,103470.31
2023-01-23T02:25:37.536Z,103451.13
2023-01-23T02:28:04.450Z,103466.75
2023-01-23T02:30:31.352Z,103475.56
2023-01-23T02:33:31.274Z,103473.69
2023-01-23T02:35:59.577Z,103468.44
2023-01-23T02:38:31.489Z,103471.97
2023-01-23T02:41:01.246Z,103472.88
2023-01-23T02:43:34.981Z,103468.41
2023-01-23T02:46:11.082Z,103472.72
2023-01-23T02:48:40.056Z,103449.25
2023-01-23T02:51:07.431Z,103450.00
2023-01-23T02:53:34.146Z,103459.59
2023-01-23T02:56:00.746Z,103455.09
2023-01-23T02:58:45.909Z,103456.94
2023-01-23T03:01:12.404Z,103450.16
2023-01-23T03:03:42.442Z,103441.53
2023-01-23T03:06:09.579Z,103456.19
2023-01-23T03:08:36.736Z,103463.22
2023-01-23T03:11:04.526Z,103451.91
2023-01-23T03:13:31.503Z,103459.69
2023-01-23T03:15:58.189Z,103456.25
2023-01-23T03:18:27.624Z,103454.38
2023-01-23T03:20:54.261Z,103468.59
2023-01-23T03:23:21.014Z,103464.19
2023-01-23T03:25:49.023Z,103453.00
2023-01-23T03:28:33.987Z,103459.03
2023-01-23T03:31:00.419Z,103483.63
2023-01-23T03:33:26.911Z,103493.31
2023-01-23T03:35:53.330Z,103495.13
2023-01-23T03:38:19.751Z,103494.28
2023-01-23T03:41:09.095Z,103501.38
2023-01-23T03:43:35.507Z,103497.97
2023-01-23T03:46:02.234Z,103502.44
2023-01-23T03:48:28.693Z,103498.94
2023-01-23T03:50:55.119Z,103498.97
2023-01-23T03:53:21.600Z,103500.75
2023-01-23T03:55:48.247Z,103501.63
2023-01-23T03:58:14.616Z,103502.50
2023-01-23T04:00:41.055Z,103484.22
2023-01-23T04:03:09.147Z,103496.34
2023-01-23T04:05:35.675Z,103501.59
2023-01-23T04:08:02.178Z,103491.09
2023-01-23T04:10:28.623Z,103510.41
2023-01-23T04:12:55.067Z,103511.31
2023-01-23T04:15:21.500Z,103506.91
2023-01-23T04:17:47.884Z,103506.91
2023-01-23T04:20:15.055Z,103507.88
2023-01-23T04:22:41.569Z,103513.13
2023-01-23T04:25:08.445Z,103514.09
2023-01-23T04:27:34.833Z,103522.84
2023-01-23T04:30:01.442Z,103522.06
2023-01-23T04:32:27.858Z,103528.16
2023-01-23T04:34:54.402Z,103531.75
2023-01-23T04:37:21.093Z,103522.91
2023-01-23T04:39:47.818Z,103527.34
2023-01-23T04:42:14.199Z,103524.69
2023-01-23T04:44:40.631Z,103523.81
2023-01-23T04:47:07.009Z,103512.50
2023-01-23T04:49:33.424Z,103528.22
2023-01-23T04:51:59.824Z,103516.78
2023-01-23T04:54:26.489Z,103527.28
2023-01-23T04:56:54.119Z,103529.94
2023-01-23T04:59:21.576Z,103529.88
2023-01-23T05:01:48.257Z,103508.06
2023-01-23T05:04:14.733Z,103524.56
2023-01-23T05:06:41.132Z,103532.50
2023-01-23T05:09:07.728Z,103523.78
2023-01-23T05:11:34.663Z,103534.31
2023-01-23T05:14:01.200Z,103529.97
2023-01-23T05:16:27.604Z,103536.16
2023-01-23T05:18:54.280Z,103539.69
2023-01-23T05:21:20.690Z,103545.84
2023-01-23T05:23:47.124Z,103536.34
2023-01-23T05:26:13.540Z,103539.69
2023-01-23T05:28:40.096Z,103545.00
2023-01-23T05:31:06.762Z,103551.06
2023-01-23T05:33:33.331Z,103558.13
2023-01-23T05:36:00.654Z,103560.78
2023-01-23T05:38:27.138Z,103556.34
2023-01-23T05:40:54.044Z,103564.31
2023-01-23T05:43:20.625Z,103536.53
2023-01-23T05:45:47.130Z,103573.25
2023-01-23T05:48:13.552Z,103583.81
2023-01-23T05:50:40.505Z,103582.13
2023-01-23T05:53:07.116Z,103582.00
2023-01-23T05:55:33.512Z,103581.13
2023-01-23T05:58:00.132Z,103579.38
2023-01-23T06:00:26.769Z,103569.75
2023-01-23T06:02:53.279Z,103580.13
2023-01-23T06:05:20.095Z,103585.34
2023-01-23T06:07:46.547Z,103581.72
2023-01-23T06:10:12.964Z,103579.03
2023-01-23T06:12:39.451Z,103585.25
2023-01-23T06:15:06.534Z,103588.72
2023-01-23T06:17:32.980Z,103573.94
2023-01-23T06:19:59.709Z,103592.22
2023-01-23T06:22:26.143Z,103594.84
2023-01-23T06:24:52.719Z,103592.16
2023-01-23T06:27:19.361Z,103600.09
2023-01-23T06:29:45.915Z,103588.66
2023-01-23T06:32:12.598Z,103596.56
2023-01-23T06:34:39.755Z,103587.72
2023-01-23T06:37:06.159Z,103607.13
2023-01-23T06:39:34.114Z,103601.81
2023-01-23T06:42:00.698Z,103605.31
2023-01-23T06:44:27.215Z,103588.84
2023-01-23T06:46:53.870Z,103603.53
2023-01-23T06:49:20.566Z,103591.53
2023-01-23T06:51:47.270Z,103612.38
2023-01-23T06:54:13.661Z,103610.63
2023-01-23T06:56:40.061Z,103613.28
2023-01-23T06:59:06.563Z,103602.72
2023-01-23T07:01:33.043Z,103617.75
2023-01-23T07:03:59.537Z,103609.81
2023-01-23T07:06:26.048Z,103615.94
2023-01-23T07:08:52.619Z,103602.94
2023-01-23T07:11:19.496Z,103628.22
2023-01-23T07:13:45.917Z,103596.00
2023-01-23T07:16:12.458Z,103621.19
2023-01-23T07:18:39.146Z,103627.41
2023-01-23T07:21:06.489Z,103633.59
2023-01-23T07:23:33.944Z,103640.69
2023-01-23T07:26:07.288Z,103640.63
2023-01-23T07:28:33.718Z,103638.84
2023-01-23T07:31:00.376Z,103635.28
2023-01-23T07:33:26.978Z,103629.13
2023-01-23T07:35:53.631Z,103646.81
2023-01-23T07:38:20.952Z,103631.06
2023-01-23T07:40:47.330Z,103630.31
2023-01-23T07:43:13.744Z,103652.94
2023-01-23T07:45:40.230Z,103654.66
2023-01-23T07:48:06.711Z,103656.41
2023-01-23T07:50:33.609Z,103659.03
2023-01-23T07:53:00.271Z,103635.53
2023-01-23T07:55:26.895Z,103661.56
2023-01-23T07:57:53.468Z,103666.81
2023-01-23T08:00:22.385Z,103664.13
2023-01-23T08:02:51.285Z,103660.66
2023-01-23T08:05:17.683Z,103664.09
2023-01-23T08:07:44.140Z,103666.72
2023-01-23T08:10:11.260Z,103662.38
2023-01-23T08:12:37.684Z,103686.09
2023-01-23T08:15:04.837Z,103657.34
2023-01-23T08:17:31.412Z,103691.38
2023-01-23T08:19:57.827Z,103696.63
2023-01-23T08:22:24.435Z,103697.47
2023-01-23T08:24:50.843Z,103697.44
2023-01-23T08:27:17.252Z,103697.38
2023-01-23T08:29:43.784Z,103695.66
2023-01-23T08:32:10.650Z,103703.47
2023-01-23T08:34:37.129Z,103705.25
2023-01-23T08:37:04.635Z,103706.88
2023-01-23T08:39:31.332Z,103693.72
2023-01-23T08:41:57.730Z,103705.91
2023-01-23T08:44:24.663Z,103695.28
2023-01-23T08:46:51.186Z,103704.94
2023-01-23T08:49:20.396Z,103709.25
2023-01-23T08:51:46.964Z,103698.00
2023-01-23T08:54:13.584Z,103712.69
2023-01-23T08:56:41.368Z,103721.47
2023-01-23T08:59:08.296Z,103706.56
2023-01-23T09:01:34.977Z,103717.06
2023-01-23T09:04:01.610Z,103707.44
2023-01-23T09:06:28.119Z,103709.19
2023-01-23T09:08:54.673Z,103718.94
2023-01-23T09:11:22.784Z,103723.34
2023-01-23T09:13:50.824Z,103725.97
2023-01-23T09:16:18.807Z,103724.16
2023-01-23T09:18:45.330Z,103715.38
2023-01-23T09:21:16.275Z,103702.19
2023-01-23T09:23:43.257Z,103714.22
2023-01-23T09:26:12.391Z,103720.28
2023-01-23T09:28:42.243Z,103721.09
2023-01-23T09:31:12.976Z,103719.22
2023-01-23T09:33:40.989Z,103718.19
2023-01-23T09:36:08.347Z,103725.16
2023-01-23T09:38:34.777Z,103727.66
2023-01-23T09:41:09.360Z,103714.34
2023-01-23T09:43:45.383Z,103710.78
2023-01-23T09:46:37.721Z,103718.31
2023-01-23T09:49:24.592Z,103718.31
2023-01-23T09:52:11.915Z,103714.72
2023-01-23T09:54:46.680Z,103723.34
2023-01-23T09:57:25.955Z,103717.88
2023-01-23T10:00:03.975Z,103717.81
2023-01-23T10:02:30.716Z,103714.22
2023-01-23T10:04:59.484Z,103704.56
2023-01-23T10:07:31.727Z,103716.53
2023-01-23T10:10:17.517Z,103708.34
2023-01-23T10:12:52.720Z,103706.41
2023-01-23T10:15:42.668Z,103704.50
2023-01-23T10:18:21.695Z,103695.44
2023-01-23T10:21:03.980Z,103691.69
2023-01-23T10:23:36.172Z,103701.25
2023-01-23T10:26:04.137Z,103679.31
2023-01-23T10:28:38.258Z,103675.63
2023-01-23T10:31:18.360Z,103697.19
2023-01-23T10:34:08.153Z,103707.22
2023-01-23T10:36:58.143Z,103708.28
2023-01-23T10:39:33.042Z,103677.75
2023-01-23T10:42:02.459Z,103712.66
2023-01-23T10:44:29.387Z,103711.56
2023-01-23T10:47:02.256Z,103711.47
2023-01-23T10:49:32.963Z,103714.84
2023-01-23T10:51:59.638Z,103713.91
2023-01-23T10:54:33.074Z,103716.44
2023-01-23T10:57:03.140Z,103708.31
2023-01-23T10:59:37.230Z,103715.22
2023-01-23T11:02:12.930Z,103716.97
2023-01-23T11:04:41.972Z,103717.88
2023-01-23T11:07:23.462Z,103718.59
2023-01-23T11:10:00.478Z,103722.94
2023-01-23T11:12:32.218Z,103724.66
2023-01-23T11:15:26.216Z,103728.06
2023-01-23T11:17:54.743Z,103714.97
2023-01-23T11:20:26.931Z,103714.03
2023-01-23T11:23:08.570Z,103721.81
2023-01-23T11:25:43.892Z,103723.59
2023-01-23T11:28:35.174Z,103730.56
2023-01-23T11:31:16.102Z,103729.75
2023-01-23T11:33:54.893Z,103732.53
2023-01-23T11:36:33.212Z,103733.41
2023-01-23T11:39:16.681Z,103729.84
2023-01-23T11:41:45.231Z,103730.94
2023-01-23T11:44:18.716Z,103716.19
2023-01-23T11:47:14.870Z,103726.38
2023-01-23T11:50:02.492Z,103732.69
2023-01-23T11:52:36.504Z,103738.00
2023-01-23T11:55:30.470Z,103743.41
2023-01-23T11:58:14.972Z,103743.41
2023-01-23T12:00:51.225Z,103736.47
2023-01-23T12:03:36.624Z,103734.53
2023-01-23T12:06:28.887Z,103737.22
2023-01-23T12:09:33.730Z,103734.69
2023-01-23T12:12:21.236Z,103738.97
2023-01-23T12:15:14.808Z,103733.00
2023-01-23T12:17:47.058Z,103732.13
2023-01-23T12:20:28.635Z,103733.03
2023-01-23T12:23:17.092Z,103727.72
2023-01-23T12:25:53.579Z,103703.38
2023-01-23T12:28:29.079Z,103725.94
2023-01-23T12:31:00.948Z,103730.44
2023-01-23T12:33:50.301Z,103732.13
2023-01-23T12:37:16.612Z,103732.03
2023-01-23T12:40:12.983Z,103730.19
2023-01-23T12:43:10.196Z,103731.91
2023-01-23T12:45:41.576Z,103722.50
2023-01-23T12:48:16.061Z,103737.41
2023-01-23T12:50:48.565Z,103737.41
2023-01-23T12:53:22.036Z,103733.78
2023-01-23T12:56:03.823Z,103725.81
2023-01-23T12:58:35.172Z,103732.84
2023-01-23T13:01:08.039Z,103723.03
2023-01-23T13:03:46.444Z,103721.28
2023-01-23T13:06:34.762Z,103721.19
2023-01-23T13:09:19.395Z,103722.88
2023-01-23T13:12:11.663Z,103716.69
2023-01-23T13:15:06.491Z,103722.09
2023-01-23T13:17:49.911Z,103734.34
2023-01-23T13:21:13.365Z,103738.41
2023-01-23T13:23:40.067Z,103735.09
2023-01-23T13:26:26.586Z,103733.31
2023-01-23T13:28:58.548Z,103738.59
2023-01-23T13:31:33.934Z,103736.72
2023-01-23T13:34:15.043Z,103749.09
2023-01-23T13:36:43.832Z,103749.09
2023-01-23T13:39:13.273Z,103748.16
2023-01-23T13:41:39.804Z,103756.13
2023-01-23T13:44:35.836Z,103757.00
2023-01-23T14:21:55.102Z,103738.94
2023-01-23T14:24:29.149Z,103743.47
2023-01-23T14:27:08.841Z,103736.34
2023-01-23T14:29:36.174Z,103744.03
2023-01-23T14:32:02.791Z,103746.25
2023-01-23T14:34:29.347Z,103729.09
2023-01-23T14:37:04.429Z,103758.75
2023-01-23T14:39:34.240Z,103755.25
2023-01-23T14:42:03.812Z,103756.19
2023-01-23T14:44:34.667Z,103753.53
2023-01-23T14:47:03.668Z,103756.72
2023-01-23T14:49:34.142Z,103754.41
2023-01-23T14:52:03.869Z,103763.31
2023-01-23T14:54:33.259Z,103743.09
2023-01-23T14:57:05.771Z,103731.75
2023-01-23T14:59:41.723Z,103737.09
2023-01-23T15:02:31.063Z,103746.66
2023-01-23T15:05:12.628Z,103740.53
2023-01-23T15:07:43.636Z,103710.91
2023-01-23T15:10:30.716Z,103731.72
2023-01-23T15:13:05.150Z,103726.53
2023-01-23T15:15:34.448Z,103724.78
2023-01-23T15:18:02.046Z,103703.13
2023-01-23T15:20:43.365Z,103717.00
2023-01-23T15:23:18.863Z,103719.56
2023-01-23T15:25:54.639Z,103704.84
2023-01-23T15:28:31.663Z,103714.34
2023-01-23T15:30:58.382Z,103712.72
2023-01-23T15:33:28.709Z,103723.34
2023-01-23T15:36:02.748Z,103715.03
2023-01-23T15:38:29.714Z,103717.22
2023-01-23T15:40:57.009Z,103710.28
2023-01-23T15:43:23.474Z,103702.47
2023-01-23T15:45:50.130Z,103689.56
2023-01-23T15:48:16.550Z,103705.22
2023-01-23T15:50:42.967Z,103705.44
2023-01-23T15:53:14.239Z,103700.44
2023-01-23T15:55:42.538Z,103729.28
2023-01-23T15:58:14.933Z,103726.66
2023-01-23T16:00:42.363Z,103727.63
2023-01-23T16:03:08.949Z,103720.78
2023-01-23T16:05:37.302Z,103736.50
2023-01-23T16:08:05.794Z,103733.09
2023-01-23T16:10:38.410Z,103748.13
2023-01-23T16:13:05.198Z,103707.91
2023-01-23T16:15:34.054Z,103726.16
2023-01-23T16:18:03.114Z,103718.56
2023-01-23T16:20:38.485Z,103739.38
2023-01-23T16:23:15.087Z,103740.34
2023-01-23T16:25:45.052Z,103749.19
2023-01-23T16:28:16.185Z,103748.88
2023-01-23T16:30:43.111Z,103744.41
2023-01-23T16:33:09.988Z,103728.28
2023-01-23T16:35:37.334Z,103737.19
2023-01-23T16:38:04.776Z,103739.84
2023-01-23T16:40:32.072Z,103760.00
2023-01-23T16:43:00.202Z,103735.88
2023-01-23T16:45:31.807Z,103762.69
2023-01-23T16:47:58.893Z,103752.19
2023-01-23T16:50:57.446Z,103757.44
2023-01-23T16:53:27.220Z,103761.81
2023-01-23T16:55:55.907Z,103725.50
2023-01-23T16:58:32.558Z,103661.91
2023-01-23T17:01:03.804Z,103701.88
2023-01-23T17:03:34.387Z,103764.56
2023-01-23T17:06:01.420Z,103767.25
2023-01-23T17:08:27.966Z,103778.72
2023-01-23T17:10:58.463Z,103780.53
2023-01-23T17:13:26.542Z,103753.69
2023-01-23T17:15:55.652Z,103680.53
2023-01-23T17:18:27.385Z,103784.41
2023-01-23T17:20:55.145Z,103760.69
2023-01-23T17:23:23.070Z,103696.31
2023-01-23T17:26:00.511Z,103774.59
2023-01-23T17:28:28.098Z,103787.59
2023-01-23T17:30:55.431Z,103787.59
2023-01-23T17:33:26.259Z,103793.75
2023-01-23T17:35:54.147Z,103792.06
2023-01-23T17:38:21.929Z,103791.16
2023-01-23T17:40:48.722Z,103767.66
2023-01-23T17:43:16.493Z,103807.06
2023-01-23T17:45:45.845Z,103794.72
2023-01-23T17:48:14.829Z,103803.53
2023-01-23T17:50:46.531Z,103804.41
2023-01-23T17:53:17.374Z,103807.97
2023-01-23T17:55:47.898Z,103808.88
2023-01-23T17:58:15.232Z,103782.78
2023-01-23T18:00:43.952Z,103809.75
2023-01-23T18:03:16.998Z,103801.78
2023-01-23T18:05:43.613Z,103805.44
2023-01-23T18:08:16.912Z,103805.34
2023-01-23T18:10:45.234Z,103797.44
2023-01-23T18:13:47.030Z,103808.84
2023-01-23T18:16:22.691Z,103819.53
2023-01-23T18:18:58.593Z,103816.94
2023-01-23T18:21:25.595Z,103822.34
2023-01-23T18:23:52.290Z,103819.69
2023-01-23T18:26:32.554Z,103825.03
2023-01-23T18:29:12.509Z,103811.75
2023-01-23T18:31:41.867Z,103815.31
2023-01-23T18:34:24.250Z,103819.69
2023-01-23T18:37:08.305Z,103817.09
2023-01-23T18:40:00.145Z,103821.50
2023-01-23T18:42:45.730Z,103818.88
2023-01-23T18:45:20.729Z,103828.59
2023-01-23T18:47:53.430Z,103821.56
2023-01-23T18:50:22.902Z,103816.28
2023-01-23T18:53:17.489Z,103825.88
2023-01-23T18:56:22.320Z,103825.00
2023-01-23T18:59:12.131Z,103831.22
2023-01-23T19:01:41.978Z,103837.13
2023-01-23T19:04:15.823Z,103826.84
2023-01-23T19:06:42.542Z,103841.03
2023-01-23T19:09:19.240Z,103838.34
2023-01-23T19:12:11.632Z,103830.38
2023-01-23T19:15:05.521Z,103832.13
2023-01-23T19:18:15.007Z,103831.22
2023-01-23T19:20:44.394Z,103835.72
2023-01-23T19:23:30.505Z,103840.13
2023-01-23T19:25:57.295Z,103840.25
2023-01-23T19:28:24.233Z,103836.72
2023-01-23T19:30:50.833Z,103840.22
2023-01-23T19:33:18.700Z,103833.13
2023-01-23T19:35:46.695Z,103830.53
2023-01-23T19:38:15.119Z,103832.34
2023-01-23T19:40:42.471Z,103833.22
2023-01-23T19:43:15.644Z,103831.41
2023-01-23T19:45:43.359Z,103821.81
2023-01-23T19:48:10.628Z,103821.69
2023-01-23T19:50:37.767Z,103809.31
2023-01-23T19:53:04.580Z,103815.50
2023-01-23T19:55:34.293Z,103817.28
2023-01-23T19:58:00.997Z,103815.56
2023-01-23T20:00:30.787Z,103816.50
2023-01-23T20:02:58.107Z,103821.69
2023-01-23T20:05:25.544Z,103811.38
2023-01-23T20:07:53.808Z,103801.75
2023-01-23T20:10:20.587Z,103835.81
2023-01-23T20:12:54.586Z,103834.03
2023-01-23T20:15:24.098Z,103839.34
2023-01-23T20:17:52.265Z,103807.91
2023-01-23T20:20:20.256Z,103833.19
2023-01-23T20:22:47.040Z,103834.94
2023-01-23T20:25:16.163Z,103837.59
2023-01-23T20:27:43.410Z,103827.94
2023-01-23T20:30:20.423Z,103840.22
2023-01-23T20:32:47.069Z,103840.25
2023-01-23T20:35:13.631Z,103842.00
2023-01-23T20:37:40.186Z,103834.94
2023-01-23T20:40:11.422Z,103845.56
2023-01-23T20:42:39.138Z,103834.09
2023-01-23T20:45:06.830Z,103836.72
2023-01-23T20:47:35.922Z,103824.50
2023-01-23T20:50:02.448Z,103834.09
2023-01-23T20:52:47.554Z,103836.72
2023-01-23T20:55:14.032Z,103834.13
2023-01-23T20:57:59.209Z,103835.84
2023-01-23T21:00:25.975Z,103839.41
2023-01-23T21:02:53.291Z,103835.91
2023-01-23T21:05:19.987Z,103836.84
2023-01-23T21:07:46.714Z,103831.53
2023-01-23T21:10:13.139Z,103841.31
2023-01-23T21:12:39.573Z,103847.47
2023-01-23T21:15:06.560Z,103857.19
2023-01-23T21:17:33.177Z,103851.81
2023-01-23T21:19:59.564Z,103851.81
2023-01-23T21:22:26.010Z,103822.16
2023-01-23T21:24:52.429Z,103860.69
2023-01-23T21:27:20.914Z,103854.63
2023-01-23T21:29:47.749Z,103866.00
2023-01-23T21:32:14.234Z,103859.81
2023-01-23T21:34:40.899Z,103861.56
2023-01-23T21:37:10.817Z,103851.81
2023-01-23T21:39:38.355Z,103844.78
2023-01-23T21:42:04.846Z,103845.78
2023-01-23T21:44:31.985Z,103848.31
2023-01-23T21:46:59.834Z,103858.03
2023-01-23T21:49:26.523Z,103858.91
2023-01-23T21:51:53.197Z,103859.00
2023-01-23T21:54:19.735Z,103868.69
2023-01-23T21:56:46.106Z,103867.72
2023-01-23T21:59:12.567Z,103867.72
2023-01-23T22:01:46.778Z,103862.50
2023-01-23T22:04:16.593Z,103843.28
2023-01-23T22:06:44.226Z,103871.22
2023-01-23T22:09:15.440Z,103876.53
2023-01-23T22:11:42.297Z,103886.25
2023-01-23T22:14:08.977Z,103854.78
2023-01-23T22:16:47.859Z,103876.63
2023-01-23T22:19:16.928Z,103886.22
2023-01-23T22:21:44.273Z,103889.78
2023-01-23T22:24:10.754Z,103896.03
2023-01-23T22:26:37.499Z,103901.41
2023-01-23T22:29:03.942Z,103896.03
2023-01-23T22:31:30.478Z,103896.94
2023-01-23T22:33:57.039Z,103903.09
2023-01-23T22:36:23.502Z,103888.97
2023-01-23T22:38:51.872Z,103880.22
2023-01-23T22:41:18.909Z,103877.50
2023-01-23T22:43:45.319Z,103870.50
2023-01-23T22:46:18.941Z,103865.06
2023-01-23T22:48:45.528Z,103865.06
2023-01-23T22:51:16.006Z,103865.94
2023-01-23T22:53:42.664Z,103862.47
2023-01-23T22:56:09.928Z,103858.03
2023-01-23T22:58:37.341Z,103860.69
2023-01-23T23:01:04.643Z,103860.69
2023-01-23T23:03:33.179Z,103859.81
2023-01-23T23:06:02.808Z,103853.66
2023-01-23T23:08:29.569Z,103861.59
2023-01-23T23:11:10.048Z,103861.63
2023-01-23T23:13:38.750Z,103866.03
2023-01-23T23:16:08.409Z,103861.66
2023-01-23T23:18:37.446Z,103839.88
2023-01-23T23:21:07.994Z,103866.94
2023-01-23T23:23:34.910Z,103869.59
2023-01-23T23:26:01.653Z,103870.50
2023-01-23T23:28:28.810Z,103874.06
2023-01-23T23:30:55.293Z,103870.53
2023-01-23T23:33:22.262Z,103874.97
2023-01-23T23:35:48.719Z,103870.56
2023-01-23T23:38:15.765Z,103875.88
2023-01-23T23:40:42.272Z,103876.75
2023-01-23T23:43:09.710Z,103874.13
2023-01-23T23:45:36.391Z,103885.66
2023-01-23T23:48:02.931Z,103876.78
2023-01-23T23:50:29.985Z,103860.28
2023-01-23T23:52:56.393Z,103871.50
2023-01-23T23:55:23.226Z,103873.28
2023-01-23T23:57:49.746Z,103878.59
